createdAt,value
2023-02-06T00:00:09.482Z,0.50
2023-02-06T00:02:10.960Z,0.50
2023-02-06T00:04:12.917Z,0.49
2023-02-06T00:06:14.838Z,0.47
2023-02-06T00:08:16.275Z,0.44
2023-02-06T00:10:17.741Z,0.41
2023-02-06T00:12:19.282Z,0.41
2023-02-06T00:14:20.828Z,0.41
2023-02-06T00:16:25.272Z,0.41
2023-02-06T00:18:26.801Z,0.39
2023-02-06T00:20:28.269Z,0.39
2023-02-06T00:22:29.718Z,0.37
2023-02-06T00:24:31.201Z,0.37
2023-02-06T00:26:32.718Z,0.36
2023-02-06T00:28:34.549Z,0.34
2023-02-06T00:30:36.143Z,0.32
2023-02-06T00:32:37.829Z,0.31
2023-02-06T00:34:39.341Z,0.31
2023-02-06T00:36:41.100Z,0.30
2023-02-06T00:38:42.593Z,0.31
2023-02-06T00:40:44.041Z,0.31
2023-02-06T00:42:45.596Z,0.30
2023-02-06T00:44:47.038Z,0.29
2023-02-06T00:46:48.518Z,0.28
2023-02-06T00:48:50.130Z,0.26
2023-02-06T00:50:52.897Z,0.25
2023-02-06T00:52:54.472Z,0.23
2023-02-06T00:54:55.921Z,0.23
2023-02-06T00:56:57.688Z,0.22
2023-02-06T00:58:59.669Z,0.23
2023-02-06T01:01:01.142Z,0.22
2023-02-06T01:03:02.675Z,0.19
2023-02-06T01:05:04.512Z,0.16
2023-02-06T01:07:06.006Z,0.12
2023-02-06T01:09:07.453Z,0.10
2023-02-06T01:11:20.183Z,0.10
2023-02-06T01:13:21.658Z,0.09
2023-02-06T01:15:23.154Z,0.08
2023-02-06T01:17:24.613Z,0.08
2023-02-06T01:19:26.152Z,0.09
2023-02-06T01:21:27.720Z,0.11
2023-02-06T01:23:29.170Z,0.13
2023-02-06T01:25:30.671Z,0.14
2023-02-06T01:27:32.245Z,0.14
2023-02-06T01:29:33.724Z,0.15
2023-02-06T01:31:35.264Z,0.14
2023-02-06T01:33:36.820Z,0.13
2023-02-06T01:35:38.307Z,0.11
2023-02-06T01:37:40.084Z,0.12
2023-02-06T01:39:41.584Z,0.14
2023-02-06T01:41:43.050Z,0.15
2023-02-06T01:44:04.773Z,0.18
2023-02-06T01:46:07.148Z,0.16
2023-02-06T01:48:14.022Z,0.17
2023-02-06T01:50:16.271Z,0.16
2023-02-06T01:52:21.399Z,0.15
2023-02-06T01:54:23.595Z,0.16
2023-02-06T01:56:26.984Z,0.15
2023-02-06T01:58:36.642Z,0.14
2023-02-06T02:00:38.180Z,0.11
2023-02-06T02:02:43.649Z,0.10
2023-02-06T02:04:45.778Z,0.08
2023-02-06T02:06:57.798Z,0.09
2023-02-06T02:09:00.776Z,0.08
2023-02-06T02:11:04.744Z,0.07
2023-02-06T02:13:06.301Z,0.07
2023-02-06T02:15:08.480Z,0.06
2023-02-06T02:17:34.020Z,0.06
2023-02-06T02:19:44.645Z,0.05
2023-02-06T02:22:23.873Z,0.04
2023-02-06T02:24:46.962Z,0.03
2023-02-06T02:27:31.350Z,0.03
2023-02-06T02:29:51.522Z,0.01
2023-02-06T02:32:17.843Z,-0.01
2023-02-06T02:34:57.010Z,-0.02
2023-02-06T02:37:07.505Z,-0.02
2023-02-06T02:39:24.852Z,-0.04
2023-02-06T02:41:45.113Z,-0.01
2023-02-06T02:44:07.749Z,0.06
2023-02-06T02:46:26.294Z,0.09
2023-02-06T02:48:36.017Z,0.09
2023-02-06T02:50:39.638Z,0.08
2023-02-06T02:52:41.531Z,0.07
2023-02-06T02:54:43.042Z,0.07
2023-02-06T02:56:44.684Z,0.06
2023-02-06T02:58:50.738Z,0.04
2023-02-06T03:01:02.309Z,0.01
2023-02-06T03:03:05.922Z,-0.03
2023-02-06T03:05:12.447Z,-0.04
2023-02-06T03:07:32.429Z,-0.07
2023-02-06T03:09:57.109Z,-0.08
2023-02-06T03:12:09.469Z,-0.11
2023-02-06T03:14:35.936Z,-0.14
2023-02-06T03:16:51.183Z,-0.16
2023-02-06T03:19:05.485Z,-0.18
2023-02-06T03:21:10.736Z,-0.21
2023-02-06T03:23:18.940Z,-0.23
2023-02-06T03:25:28.188Z,-0.25
2023-02-06T03:27:31.275Z,-0.29
2023-02-06T03:29:35.963Z,-0.30
2023-02-06T03:31:49.750Z,-0.33
2023-02-06T03:34:13.998Z,-0.36
2023-02-06T03:36:18.378Z,-0.38
2023-02-06T03:38:19.978Z,-0.40
2023-02-06T03:40:21.917Z,-0.41
2023-02-06T03:42:24.401Z,-0.43
2023-02-06T03:44:31.791Z,-0.44
2023-02-06T03:46:36.556Z,-0.46
2023-02-06T03:48:42.995Z,-0.49
2023-02-06T03:50:47.252Z,-0.50
2023-02-06T03:52:51.088Z,-0.57
2023-02-06T03:54:58.329Z,-0.65
2023-02-06T03:57:02.740Z,-0.68
2023-02-06T03:59:04.287Z,-0.70
2023-02-06T04:01:07.055Z,-0.72
2023-02-06T04:03:10.452Z,-0.73
2023-02-06T04:05:11.998Z,-0.71
2023-02-06T04:07:19.871Z,-0.61
2023-02-06T04:09:21.407Z,-0.51
2023-02-06T04:11:22.878Z,-0.39
2023-02-06T04:13:24.345Z,-0.28
2023-02-06T04:15:25.950Z,-0.22
2023-02-06T04:17:43.298Z,-0.17
2023-02-06T04:19:48.986Z,-0.18
2023-02-06T04:21:50.469Z,-0.16
2023-02-06T04:23:51.929Z,-0.15
2023-02-06T04:25:54.569Z,-0.12
2023-02-06T04:27:56.106Z,-0.07
2023-02-06T04:29:57.581Z,0.01
2023-02-06T04:32:02.156Z,0.03
2023-02-06T04:34:03.653Z,0.04
2023-02-06T04:36:05.503Z,0.07
2023-02-06T04:38:06.967Z,0.11
2023-02-06T04:40:08.964Z,0.16
2023-02-06T04:42:10.598Z,0.19
2023-02-06T04:44:12.133Z,0.23
2023-02-06T04:46:13.779Z,0.29
2023-02-06T04:48:15.262Z,0.38
2023-02-06T04:50:17.976Z,0.41
2023-02-06T04:52:19.429Z,0.43
2023-02-06T04:54:20.985Z,0.45
2023-02-06T04:56:22.574Z,0.45
2023-02-06T04:58:24.030Z,0.48
2023-02-06T05:00:25.583Z,0.48
2023-02-06T05:02:27.180Z,0.54
2023-02-06T05:04:28.678Z,0.59
2023-02-06T05:06:31.172Z,0.62
2023-02-06T05:08:32.673Z,0.67
2023-02-06T05:10:34.163Z,0.71
2023-02-06T05:12:36.128Z,0.75
2023-02-06T05:14:37.597Z,0.78
2023-02-06T05:16:39.083Z,0.82
2023-02-06T05:18:41.226Z,0.82
2023-02-06T05:20:43.182Z,0.84
2023-02-06T05:22:44.661Z,0.83
2023-02-06T05:24:46.150Z,0.83
2023-02-06T05:26:47.600Z,0.83
2023-02-06T05:28:49.196Z,0.84
2023-02-06T05:30:51.007Z,0.85
2023-02-06T05:32:52.731Z,0.86
2023-02-06T05:34:54.228Z,0.86
2023-02-06T05:36:55.689Z,0.85
2023-02-06T05:38:57.204Z,0.86
2023-02-06T05:40:58.725Z,0.86
2023-02-06T05:43:00.209Z,0.87
2023-02-06T05:45:02.025Z,0.88
2023-02-06T05:47:03.560Z,0.89
2023-02-06T05:49:05.258Z,0.91
2023-02-06T05:51:06.777Z,0.92
2023-02-06T05:53:08.220Z,0.93
2023-02-06T05:55:10.183Z,0.93
2023-02-06T05:57:11.638Z,0.94
2023-02-06T05:59:13.119Z,0.93
2023-02-06T06:01:14.676Z,0.93
2023-02-06T06:03:16.155Z,0.93
2023-02-06T06:05:17.716Z,0.94
2023-02-06T06:07:19.181Z,0.94
2023-02-06T06:09:20.840Z,0.97
2023-02-06T06:11:22.798Z,0.97
2023-02-06T06:13:24.262Z,0.95
2023-02-06T06:15:25.742Z,0.97
2023-02-06T06:17:27.319Z,0.96
2023-02-06T06:19:28.781Z,0.97
2023-02-06T06:21:30.445Z,0.99
2023-02-06T06:23:31.955Z,1.03
2023-02-06T06:25:35.098Z,1.05
2023-02-06T06:27:36.671Z,1.07
2023-02-06T06:29:38.261Z,1.07
2023-02-06T06:31:39.734Z,1.05
2023-02-06T06:33:41.865Z,1.05
2023-02-06T06:35:43.646Z,1.07
2023-02-06T06:37:45.183Z,1.08
2023-02-06T06:39:46.737Z,1.10
2023-02-06T06:41:48.243Z,1.11
2023-02-06T06:43:51.535Z,1.11
2023-02-06T06:45:53.245Z,1.11
2023-02-06T06:47:54.758Z,1.09
2023-02-06T06:49:56.274Z,1.07
2023-02-06T06:51:57.748Z,1.07
2023-02-06T06:53:59.217Z,1.06
2023-02-06T06:56:05.299Z,1.07
2023-02-06T06:58:06.773Z,1.10
2023-02-06T07:00:09.323Z,1.12
2023-02-06T07:02:11.238Z,1.15
2023-02-06T07:04:12.702Z,1.17
2023-02-06T07:06:15.299Z,1.19
2023-02-06T07:08:16.761Z,1.23
2023-02-06T07:10:18.665Z,1.25
2023-02-06T07:12:20.480Z,1.26
2023-02-06T07:14:21.926Z,1.27
2023-02-06T07:16:24.605Z,1.28
2023-02-06T07:18:26.110Z,1.30
2023-02-06T07:20:27.889Z,1.32
2023-02-06T07:22:29.399Z,1.34
2023-02-06T07:24:30.932Z,1.36
2023-02-06T07:26:32.450Z,1.36
2023-02-06T07:28:34.276Z,1.36
2023-02-06T07:30:35.988Z,1.37
2023-02-06T07:32:37.804Z,1.41
2023-02-06T07:34:40.593Z,1.42
2023-02-06T07:36:42.519Z,1.45
2023-02-06T07:38:44.231Z,1.47
2023-02-06T07:40:46.199Z,1.51
2023-02-06T07:42:47.761Z,1.53
2023-02-06T07:44:49.228Z,1.54
2023-02-06T07:46:52.793Z,1.56
2023-02-06T07:48:54.301Z,1.56
2023-02-06T07:50:56.459Z,1.58
2023-02-06T07:52:58.469Z,1.60
2023-02-06T07:54:59.947Z,1.62
2023-02-06T07:57:01.560Z,1.61
2023-02-06T07:59:03.546Z,1.58
2023-02-06T08:01:06.241Z,1.58
2023-02-06T08:03:08.248Z,1.57
2023-02-06T08:05:09.994Z,1.57
2023-02-06T08:07:14.949Z,1.56
2023-02-06T08:09:17.503Z,1.57
2023-02-06T08:11:20.469Z,1.60
2023-02-06T08:13:21.941Z,1.64
2023-02-06T08:15:23.576Z,1.67
2023-02-06T08:17:25.099Z,1.71
2023-02-06T08:19:26.636Z,1.75
2023-02-06T08:21:28.428Z,1.80
2023-02-06T08:23:29.986Z,1.81
2023-02-06T08:25:31.437Z,1.84
2023-02-06T08:27:33.346Z,1.83
2023-02-06T08:29:42.387Z,1.85
2023-02-06T08:31:43.969Z,1.90
2023-02-06T08:33:46.312Z,1.95
2023-02-06T08:35:47.769Z,1.99
2023-02-06T08:37:49.227Z,2.03
2023-02-06T08:39:50.674Z,2.07
2023-02-06T08:41:52.233Z,2.09
2023-02-06T08:43:57.369Z,2.11
2023-02-06T08:45:59.584Z,2.16
2023-02-06T08:48:01.130Z,2.22
2023-02-06T08:50:03.727Z,2.27
2023-02-06T08:52:05.918Z,2.31
2023-02-06T08:54:10.910Z,2.37
2023-02-06T08:56:12.818Z,2.41
2023-02-06T08:58:14.279Z,2.45
2023-02-06T09:00:17.433Z,2.48
2023-02-06T09:02:19.064Z,2.50
2023-02-06T09:04:20.727Z,2.51
2023-02-06T09:06:22.298Z,2.50
2023-02-06T09:08:23.790Z,2.51
2023-02-06T09:10:30.367Z,2.56
2023-02-06T09:12:31.870Z,2.62
2023-02-06T09:14:35.351Z,2.67
2023-02-06T09:16:37.941Z,2.71
2023-02-06T09:18:40.239Z,2.75
2023-02-06T09:20:41.682Z,2.79
2023-02-06T09:22:44.689Z,2.81
2023-02-06T09:24:46.267Z,2.82
2023-02-06T09:26:59.369Z,2.81
2023-02-06T09:29:05.453Z,2.82
2023-02-06T09:31:08.187Z,2.86
2023-02-06T09:33:09.704Z,2.92
2023-02-06T09:35:11.229Z,2.97
2023-02-06T09:37:12.704Z,3.01
2023-02-06T09:39:14.278Z,3.06
2023-02-06T09:41:24.403Z,3.07
2023-02-06T09:43:26.231Z,2.99
2023-02-06T09:45:29.952Z,2.96
2023-02-06T09:47:35.177Z,2.93
2023-02-06T09:49:44.540Z,2.94
2023-02-06T09:51:45.986Z,2.98
2023-02-06T09:54:09.429Z,3.01
2023-02-06T09:56:25.933Z,3.05
2023-02-06T09:58:47.188Z,3.08
2023-02-06T10:00:58.483Z,3.10
2023-02-06T10:03:23.786Z,3.13
2023-02-06T10:05:47.204Z,3.18
2023-02-06T10:07:55.753Z,3.19
2023-02-06T10:10:06.650Z,3.17
2023-02-06T10:12:15.473Z,3.17
2023-02-06T10:14:22.295Z,3.15
2023-02-06T10:16:54.844Z,3.14
2023-02-06T10:19:01.243Z,3.14
2023-02-06T10:21:11.938Z,3.13
2023-02-06T10:23:41.102Z,3.17
2023-02-06T10:25:49.858Z,3.17
2023-02-06T10:27:54.783Z,3.20
2023-02-06T10:29:56.306Z,3.23
2023-02-06T10:32:15.679Z,3.24
2023-02-06T10:34:47.183Z,3.26
2023-02-06T10:37:05.158Z,3.30
2023-02-06T10:39:37.861Z,3.33
2023-02-06T10:41:51.103Z,3.38
2023-02-06T10:44:04.526Z,3.42
2023-02-06T10:46:33.247Z,3.48
2023-02-06T10:48:42.556Z,3.52
2023-02-06T10:50:50.765Z,3.57
2023-02-06T10:52:56.283Z,3.60
2023-02-06T10:55:03.336Z,3.67
2023-02-06T10:57:15.916Z,3.76
2023-02-06T10:59:17.320Z,3.85
2023-02-06T11:01:26.419Z,3.89
2023-02-06T11:03:31.824Z,3.91
2023-02-06T11:05:33.895Z,3.92
2023-02-06T11:07:42.329Z,3.88
2023-02-06T11:09:44.710Z,3.90
2023-02-06T11:11:48.466Z,3.92
2023-02-06T11:13:58.586Z,3.92
2023-02-06T11:16:05.088Z,3.92
2023-02-06T11:18:12.874Z,3.99
2023-02-06T11:20:25.500Z,4.00
2023-02-06T11:22:33.354Z,4.01
2023-02-06T11:24:39.258Z,4.00
2023-02-06T11:26:54.623Z,4.03
2023-02-06T11:29:01.971Z,4.00
2023-02-06T11:31:07.163Z,4.00
2023-02-06T11:33:47.437Z,3.99
2023-02-06T11:35:59.501Z,3.98
2023-02-06T11:38:07.735Z,4.01
2023-02-06T11:40:21.613Z,4.05
2023-02-06T11:42:28.428Z,4.08
2023-02-06T11:44:37.286Z,4.17
2023-02-06T11:46:39.019Z,4.27
2023-02-06T11:48:45.354Z,4.36
2023-02-06T11:50:54.491Z,4.48
2023-02-06T11:53:07.912Z,4.56
2023-02-06T11:55:23.816Z,4.67
2023-02-06T11:57:26.827Z,4.76
2023-02-06T11:59:29.622Z,4.83
2023-02-06T12:01:42.102Z,4.86
2023-02-06T12:03:49.583Z,4.90
2023-02-06T12:05:52.162Z,4.86
2023-02-06T12:07:57.001Z,4.91
2023-02-06T12:09:58.504Z,4.85
2023-02-06T12:12:10.033Z,4.90
2023-02-06T12:14:19.044Z,5.04
2023-02-06T12:16:22.623Z,5.02
2023-02-06T12:18:27.745Z,5.03
2023-02-06T12:20:35.089Z,5.13
2023-02-06T12:22:42.860Z,5.17
2023-02-06T12:24:48.447Z,5.21
2023-02-06T12:26:51.116Z,5.25
2023-02-06T12:29:08.073Z,5.28
2023-02-06T12:31:41.693Z,5.31
2023-02-06T12:33:48.806Z,5.30
2023-02-06T12:36:00.942Z,5.31
2023-02-06T12:38:13.871Z,5.31
2023-02-06T12:40:38.549Z,5.31
2023-02-06T12:42:47.326Z,5.44
2023-02-06T12:45:03.269Z,5.61
2023-02-06T12:47:19.719Z,5.77
2023-02-06T12:49:35.386Z,5.96
2023-02-06T12:51:41.951Z,6.11
2023-02-06T12:53:51.056Z,6.25
2023-02-06T12:55:56.382Z,6.29
2023-02-06T12:57:58.320Z,6.45
2023-02-06T13:00:09.630Z,6.38
2023-02-06T13:02:17.103Z,6.35
2023-02-06T13:04:31.606Z,6.43
2023-02-06T13:06:44.019Z,6.46
2023-02-06T13:09:01.180Z,6.63
2023-02-06T13:11:24.287Z,6.64
2023-02-06T13:13:45.785Z,6.62
2023-02-06T13:15:54.889Z,6.70
2023-02-06T13:17:56.908Z,6.64
2023-02-06T13:20:18.945Z,6.52
2023-02-06T13:22:21.291Z,6.48
2023-02-06T13:24:22.790Z,6.50
2023-02-06T13:26:53.361Z,6.57
2023-02-06T13:28:58.698Z,6.71
2023-02-06T13:31:09.712Z,6.79
2023-02-06T13:33:20.092Z,6.69
2023-02-06T13:35:27.942Z,6.65
2023-02-06T13:37:39.797Z,6.55
2023-02-06T13:39:48.011Z,6.50
2023-02-06T13:41:49.744Z,6.39
2023-02-06T13:43:58.257Z,6.38
2023-02-06T13:46:05.643Z,6.53
2023-02-06T13:48:46.631Z,6.60
2023-02-06T13:50:54.845Z,6.59
2023-02-06T13:53:42.006Z,6.44
2023-02-06T13:55:58.366Z,6.37
2023-02-06T13:58:27.154Z,6.34
2023-02-06T14:00:32.192Z,6.35
2023-02-06T14:02:40.644Z,6.36
2023-02-06T14:04:44.380Z,6.29
2023-02-06T14:07:23.501Z,6.23
2023-02-06T14:09:44.075Z,6.22
2023-02-06T14:12:22.344Z,6.19
2023-02-06T14:14:55.984Z,6.18
2023-02-06T14:17:34.413Z,6.17
2023-02-06T14:19:35.769Z,6.16
2023-02-06T14:22:00.425Z,6.14
2023-02-06T14:24:08.066Z,6.15
2023-02-06T14:26:35.533Z,6.13
2023-02-06T14:28:52.183Z,6.21
2023-02-06T14:31:33.294Z,6.29
2023-02-06T14:34:10.548Z,6.39
2023-02-06T14:36:48.191Z,6.55
2023-02-06T14:38:52.617Z,6.67
2023-02-06T14:40:56.550Z,6.70
2023-02-06T14:43:02.066Z,6.72
2023-02-06T14:45:08.835Z,6.69
2023-02-06T14:47:40.929Z,6.68
2023-02-06T14:49:42.513Z,6.65
2023-02-06T14:51:50.578Z,6.61
2023-02-06T14:54:02.177Z,6.59
2023-02-06T14:56:18.697Z,6.55
2023-02-06T14:58:29.406Z,6.51
2023-02-06T15:00:31.993Z,6.48
2023-02-06T15:02:36.029Z,6.42
2023-02-06T15:04:46.150Z,6.35
2023-02-06T15:06:58.938Z,6.28
2023-02-06T15:09:01.154Z,6.23
2023-02-06T15:11:06.466Z,6.16
2023-02-06T15:13:21.043Z,6.12
2023-02-06T15:15:25.373Z,6.04
2023-02-06T15:17:26.920Z,5.98
2023-02-06T15:19:30.868Z,5.94
2023-02-06T15:21:32.351Z,5.88
2023-02-06T15:23:46.040Z,5.85
2023-02-06T15:26:02.563Z,5.84
2023-02-06T15:28:06.838Z,5.79
2023-02-06T15:30:25.879Z,5.75
2023-02-06T15:32:37.923Z,5.70
2023-02-06T15:34:39.422Z,5.66
2023-02-06T15:36:40.879Z,5.63
2023-02-06T15:38:43.315Z,5.59
2023-02-06T15:40:48.753Z,5.56
2023-02-06T15:42:51.093Z,5.53
2023-02-06T15:44:52.737Z,5.49
2023-02-06T15:46:56.211Z,5.45
2023-02-06T15:48:58.421Z,5.40
2023-02-06T15:51:19.369Z,5.35
2023-02-06T15:53:30.118Z,5.31
2023-02-06T15:55:35.341Z,5.26
2023-02-06T15:57:42.836Z,5.22
2023-02-06T15:59:44.690Z,5.18
2023-02-06T16:01:47.435Z,5.14
2023-02-06T16:03:53.235Z,5.09
2023-02-06T16:05:56.519Z,5.05
2023-02-06T16:07:59.113Z,4.99
2023-02-06T16:10:23.914Z,4.93
2023-02-06T16:12:25.613Z,4.88
2023-02-06T16:14:33.770Z,4.85
2023-02-06T16:16:35.354Z,4.77
2023-02-06T16:18:40.064Z,4.72
2023-02-06T16:20:42.859Z,4.69
2023-02-06T16:22:44.320Z,4.65
2023-02-06T16:24:46.062Z,4.58
2023-02-06T16:26:52.117Z,4.55
2023-02-06T16:29:03.357Z,4.49
2023-02-06T16:31:05.661Z,4.41
2023-02-06T16:33:37.245Z,4.34
2023-02-06T16:35:38.682Z,4.25
2023-02-06T16:37:40.155Z,4.19
2023-02-06T16:39:43.652Z,4.13
2023-02-06T16:41:49.492Z,4.08
2023-02-06T16:43:52.443Z,4.03
2023-02-06T16:45:53.966Z,3.96
2023-02-06T16:47:55.776Z,3.92
2023-02-06T16:49:57.290Z,3.87
2023-02-06T16:51:59.374Z,3.82
2023-02-06T16:54:00.813Z,3.77
2023-02-06T16:56:02.394Z,3.73
2023-02-06T16:58:03.898Z,3.69
2023-02-06T17:00:15.854Z,3.67
2023-02-06T17:02:17.404Z,3.63
2023-02-06T17:04:18.854Z,3.57
2023-02-06T17:06:23.844Z,3.54
2023-02-06T17:08:25.831Z,3.47
2023-02-06T17:10:27.305Z,3.44
2023-02-06T17:12:30.647Z,3.40
2023-02-06T17:14:32.099Z,3.35
2023-02-06T17:16:33.766Z,3.30
2023-02-06T17:18:35.211Z,3.27
2023-02-06T17:20:39.917Z,3.24
2023-02-06T17:22:41.481Z,3.18
2023-02-06T17:24:43.154Z,3.09
2023-02-06T17:26:44.593Z,3.01
2023-02-06T17:28:46.485Z,2.98
2023-02-06T17:30:50.685Z,2.94
2023-02-06T17:32:52.358Z,2.89
2023-02-06T17:34:54.460Z,2.84
2023-02-06T17:36:56.646Z,2.80
2023-02-06T17:38:59.373Z,2.76
2023-02-06T17:41:00.858Z,2.71
2023-02-06T17:43:04.553Z,2.68
2023-02-06T17:45:06.456Z,2.62
2023-02-06T17:47:07.987Z,2.58
2023-02-06T17:49:09.436Z,2.55
2023-02-06T17:51:11.499Z,2.50
2023-02-06T17:53:14.075Z,2.44
2023-02-06T17:55:16.219Z,2.40
2023-02-06T17:57:17.702Z,2.36
2023-02-06T17:59:19.148Z,2.32
2023-02-06T18:01:23.263Z,2.27
2023-02-06T18:03:25.224Z,2.22
2023-02-06T18:05:27.294Z,2.18
2023-02-06T18:07:28.773Z,2.14
2023-02-06T18:09:30.320Z,2.10
2023-02-06T18:11:32.193Z,2.06
2023-02-06T18:13:33.786Z,2.01
2023-02-06T18:15:35.304Z,1.98
2023-02-06T18:17:36.906Z,1.94
2023-02-06T18:19:46.535Z,1.91
2023-02-06T18:21:48.054Z,1.87
2023-02-06T18:23:49.529Z,1.84
2023-02-06T18:25:51.079Z,1.80
2023-02-06T18:27:52.628Z,1.75
2023-02-06T18:29:55.128Z,1.72
2023-02-06T18:31:56.755Z,1.66
2023-02-06T18:33:58.691Z,1.63
2023-02-06T18:36:05.002Z,1.61
2023-02-06T18:38:09.693Z,1.55
2023-02-06T18:40:11.551Z,1.54
2023-02-06T18:42:31.663Z,1.52
2023-02-06T18:44:34.904Z,1.48
2023-02-06T18:46:37.981Z,1.46
2023-02-06T18:48:39.547Z,1.42
2023-02-06T18:50:42.780Z,1.40
2023-02-06T18:52:44.265Z,1.38
2023-02-06T18:54:46.797Z,1.36
2023-02-06T18:56:49.774Z,1.34
2023-02-06T18:58:51.413Z,1.30
2023-02-06T19:00:52.869Z,1.28
2023-02-06T19:02:57.072Z,1.25
2023-02-06T19:04:59.129Z,1.23
2023-02-06T19:07:00.652Z,1.21
2023-02-06T19:09:07.036Z,1.16
2023-02-06T19:11:09.013Z,1.12
2023-02-06T19:13:10.577Z,1.09
2023-02-06T19:15:13.346Z,1.05
2023-02-06T19:17:14.878Z,1.02
2023-02-06T19:19:16.738Z,0.99
2023-02-06T19:21:20.836Z,0.96
2023-02-06T19:23:22.361Z,0.93
2023-02-06T19:25:23.900Z,0.90
2023-02-06T19:27:26.182Z,0.88
2023-02-06T19:29:35.543Z,0.86
2023-02-06T19:31:40.495Z,0.83
2023-02-06T19:33:42.144Z,0.83
2023-02-06T19:35:44.194Z,0.83
2023-02-06T19:37:45.720Z,0.83
2023-02-06T19:39:47.368Z,0.83
2023-02-06T19:41:48.842Z,0.83
2023-02-06T19:43:53.176Z,0.83
2023-02-06T19:45:54.781Z,0.83
2023-02-06T19:47:57.172Z,0.81
2023-02-06T19:49:58.688Z,0.81
2023-02-06T19:52:00.361Z,0.82
2023-02-06T19:54:01.984Z,0.82
2023-02-06T19:56:04.610Z,0.80
2023-02-06T19:58:06.203Z,0.80
2023-02-06T20:00:08.418Z,0.78
2023-02-06T20:02:13.215Z,0.76
2023-02-06T20:04:15.246Z,0.74
2023-02-06T20:06:17.809Z,0.73
2023-02-06T20:08:19.326Z,0.72
2023-02-06T20:10:21.935Z,0.69
2023-02-06T20:12:23.491Z,0.68
2023-02-06T20:14:25.882Z,0.65
2023-02-06T20:16:30.654Z,0.64
2023-02-06T20:18:34.406Z,0.61
2023-02-06T20:20:36.361Z,0.59
2023-02-06T20:22:39.898Z,0.56
2023-02-06T20:24:41.374Z,0.55
2023-02-06T20:26:43.245Z,0.53
2023-02-06T20:28:45.660Z,0.51
2023-02-06T20:30:47.543Z,0.49
2023-02-06T20:32:49.107Z,0.45
2023-02-06T20:34:50.588Z,0.43
2023-02-06T20:36:52.341Z,0.40
2023-02-06T20:38:56.366Z,0.38
2023-02-06T20:40:57.873Z,0.34
2023-02-06T20:42:59.418Z,0.34
2023-02-06T20:45:00.946Z,0.31
2023-02-06T20:47:02.489Z,0.30
2023-02-06T20:49:09.227Z,0.28
2023-02-06T20:51:11.108Z,0.25
2023-02-06T20:53:12.647Z,0.23
2023-02-06T20:55:14.201Z,0.20
2023-02-06T20:57:15.660Z,0.17
2023-02-06T20:59:19.122Z,0.15
2023-02-06T21:01:23.313Z,0.12
2023-02-06T21:03:24.990Z,0.09
2023-02-06T21:05:27.022Z,0.07
2023-02-06T21:07:29.037Z,0.04
2023-02-06T21:09:30.736Z,0.03
2023-02-06T21:11:39.158Z,0.00
2023-02-06T21:13:41.423Z,-0.04
2023-02-06T21:15:43.342Z,-0.08
2023-02-06T21:17:44.842Z,-0.11
2023-02-06T21:19:46.317Z,-0.14
2023-02-06T21:21:49.295Z,-0.16
2023-02-06T21:23:51.162Z,-0.18
2023-02-06T21:25:54.950Z,-0.21
2023-02-06T21:27:56.448Z,-0.24
2023-02-06T21:29:58.611Z,-0.27
2023-02-06T21:32:12.733Z,-0.27
2023-02-06T21:34:18.508Z,-0.30
2023-02-06T21:36:21.140Z,-0.33
2023-02-06T21:38:23.948Z,-0.35
2023-02-06T21:40:25.443Z,-0.38
2023-02-06T21:42:27.526Z,-0.40
2023-02-06T21:44:29.097Z,-0.42
2023-02-06T21:46:31.012Z,-0.45
2023-02-06T21:48:33.488Z,-0.46
2023-02-06T21:50:38.447Z,-0.47
2023-02-06T21:52:39.984Z,-0.49
2023-02-06T21:54:41.465Z,-0.50
2023-02-06T21:56:43.273Z,-0.53
2023-02-06T21:58:45.345Z,-0.54
2023-02-06T22:00:47.684Z,-0.55
2023-02-06T22:02:49.190Z,-0.56
2023-02-06T22:04:50.666Z,-0.59
2023-02-06T22:06:52.121Z,-0.63
2023-02-06T22:08:55.916Z,-0.66
2023-02-06T22:10:57.372Z,-0.68
2023-02-06T22:12:58.834Z,-0.70
2023-02-06T22:15:00.726Z,-0.74
2023-02-06T22:17:02.205Z,-0.77
2023-02-06T22:19:04.863Z,-0.82
2023-02-06T22:21:08.748Z,-0.86
2023-02-06T22:23:10.206Z,-0.88
2023-02-06T22:25:11.832Z,-0.89
2023-02-06T22:27:13.288Z,-0.90
2023-02-06T22:29:16.815Z,-0.91
2023-02-06T22:31:23.301Z,-0.95
2023-02-06T22:33:24.770Z,-0.99
2023-02-06T22:35:26.232Z,-1.02
2023-02-06T22:37:30.613Z,-1.04
2023-02-06T22:39:32.075Z,-1.06
2023-02-06T22:41:35.081Z,-1.08
2023-02-06T22:43:38.526Z,-1.11
2023-02-06T22:45:40.112Z,-1.12
2023-02-06T22:47:41.600Z,-1.14
2023-02-06T22:49:43.147Z,-1.15
2023-02-06T22:51:45.551Z,-1.16
2023-02-06T22:53:47.254Z,-1.18
2023-02-06T22:56:07.234Z,-1.19
2023-02-06T22:58:08.693Z,-1.21
2023-02-06T23:00:12.113Z,-1.23
2023-02-06T23:02:13.865Z,-1.23
2023-02-06T23:04:21.388Z,-1.25
2023-02-06T23:06:23.406Z,-1.28
2023-02-06T23:08:24.945Z,-1.29
2023-02-06T23:10:26.428Z,-1.28
2023-02-06T23:12:28.297Z,-1.30
2023-02-06T23:14:31.805Z,-1.31
2023-02-06T23:16:35.219Z,-1.33
2023-02-06T23:18:37.255Z,-1.34
2023-02-06T23:20:38.841Z,-1.37
2023-02-06T23:22:40.293Z,-1.36
2023-02-06T23:24:41.787Z,-1.37
2023-02-06T23:26:46.399Z,-1.38
2023-02-06T23:28:47.876Z,-1.38
2023-02-06T23:30:49.717Z,-1.39
2023-02-06T23:32:51.721Z,-1.40
2023-02-06T23:34:53.171Z,-1.42
2023-02-06T23:36:54.705Z,-1.44
2023-02-06T23:38:56.441Z,-1.45
2023-02-06T23:41:04.597Z,-1.46
2023-02-06T23:43:06.787Z,-1.49
2023-02-06T23:45:08.606Z,-1.50
2023-02-06T23:47:10.083Z,-1.55
2023-02-06T23:49:11.614Z,-1.59
2023-02-06T23:51:13.269Z,-1.60
2023-02-06T23:53:14.750Z,-1.61
2023-02-06T23:55:17.077Z,-1.63
2023-02-06T23:57:18.562Z,-1.65
2023-02-06T23:59:20.053Z,-1.68
